| time (UTC) | temp C | wind direction | speed KPH | gust KPH | rain 1hr cm | rain 24hr cm | rain mn cm | humidity % | barometer mb |
| 20260906094551 | 35 | 332 | 3.2 | 14.5 | 0.00 | 0.00 | 0.00 | 27 | 1016.0 |
| 20260906093147 | 35 | 322 | 8.0 | 16.1 | 0.00 | 0.00 | 0.00 | 27 | 1016.1 |
| 20260906091614 | 35 | 313 | 1.6 | 8.0 | 0.00 | 0.00 | 0.00 | 27 | 1016.1 |
| 20260906090033 | 35 | 283 | 3.2 | 6.4 | 0.00 | 0.00 | 0.00 | 28 | 1016.2 |
| 20260906084623 | 35 | 290 | 3.2 | 9.7 | 0.00 | 0.00 | 0.00 | 29 | 1016.2 |
| 20260906083047 | 34 | 298 | 0.0 | 12.9 | 0.00 | 0.00 | 0.00 | 29 | 1016.2 |
| 20260906081529 | 33 | 266 | 3.2 | 11.3 | 0.00 | 0.00 | 0.00 | 29 | 1016.3 |
| 20260906080124 | 33 | 281 | 3.2 | 9.7 | 0.00 | 0.00 | 0.00 | 30 | 1016.4 |
| 20260906074548 | 33 | 275 | 1.6 | 3.2 | 0.00 | 0.00 | 0.00 | 31 | 1016.3 |
| 20260906073010 | 33 | 270 | 1.6 | 9.7 | 0.00 | 0.00 | 0.00 | 32 | 1016.2 |
| 20260906071600 | 32 | 345 | 0.0 | 4.8 | 0.00 | 0.00 | 0.00 | 32 | 1016.2 |
| 20260906070024 | 31 | 345 | 0.0 | 3.2 | 0.00 | 0.00 | 0.00 | 34 | 1016.0 |
| 20260906064614 | 31 | 345 | 0.0 | 1.6 | 0.00 | 0.00 | 0.00 | 34 | 1015.9 |
| 20260906063037 | 30 | 345 | 0.0 | 1.6 | 0.00 | 0.00 | 0.00 | 40 | 1015.8 |
| 20260906061630 | 28 | 345 | 0.0 | 1.6 | 0.00 | 0.00 | 0.00 | 41 | 1015.6 |
| 20260906060055 | 27 | 345 | 0.0 | 3.2 | 0.00 | 0.00 | 0.00 | 42 | 1015.6 |
| 20260906054551 | 26 | 345 | 0.0 | 0.0 | 0.00 | 0.00 | 0.00 | 51 | 1015.5 |
| 20260906053029 | 25 | 345 | 0.0 | 0.0 | 0.00 | 0.00 | 0.00 | 53 | 1015.4 |
| 20260906051529 | 23 | 345 | 0.0 | 0.0 | 0.00 | 0.00 | 0.00 | 55 | 1015.5 |
| 20260906050027 | 23 | 345 | 0.0 | 0.0 | 0.00 | 0.00 | 0.00 | 56 | 1015.5 |
| 20260906044512 | 22 | 345 | 0.0 | 0.0 | 0.00 | 0.00 | 0.00 | 57 | 1015.4 |
| 20260906043007 | 21 | 345 | 0.0 | 0.0 | 0.00 | 0.00 | 0.00 | 57 | 1015.3 |
| 20260906041505 | 21 | 345 | 0.0 | 0.0 | 0.00 | 0.00 | 0.00 | 55 | 1015.2 |
| 20260906040004 | 21 | 345 | 0.0 | 0.0 | 0.00 | 0.00 | 0.00 | 56 | 1015.0 |
| 20260906034503 | 21 | 345 | 0.0 | 0.0 | 0.00 | 0.00 | 0.00 | 57 | 1015.0 |
| 20260906033001 | 21 | 345 | 0.0 | 0.0 | 0.00 | 0.00 | 0.00 | 57 | 1014.9 |
| 20260906031614 | 21 | 345 | 0.0 | 0.0 | 0.00 | 0.00 | 0.00 | 56 | 1014.9 |
| 20260906030059 | 21 | 345 | 0.0 | 0.0 | 0.00 | 0.00 | 0.00 | 55 | 1014.8 |
| 20260906024606 | 21 | 345 | 0.0 | 0.0 | 0.00 | 0.00 | 0.00 | 56 | 1014.5 |
| 20260906023102 | 21 | 345 | 0.0 | 0.0 | 0.00 | 0.00 | 0.00 | 55 | 1014.3 |
| 20260906021601 | 21 | 345 | 0.0 | 0.0 | 0.00 | 0.00 | 0.00 | 55 | 1014.5 |
| 20260906020055 | 21 | 345 | 0.0 | 0.0 | 0.00 | 0.00 | 0.00 | 55 | 1014.6 |
| 20260906014555 | 21 | 345 | 0.0 | 0.0 | 0.00 | 0.00 | 0.00 | 55 | 1014.6 |
| 20260906013052 | 22 | 345 | 0.0 | 0.0 | 0.00 | 0.00 | 0.00 | 54 | 1014.6 |
| 20260906011551 | 22 | 345 | 0.0 | 0.0 | 0.00 | 0.00 | 0.00 | 54 | 1014.7 |
| 20260906010052 | 22 | 345 | 0.0 | 0.0 | 0.00 | 0.00 | 0.00 | 52 | 1014.7 |
| 20260906004548 | 22 | 345 | 0.0 | 0.0 | 0.00 | 0.00 | 0.00 | 52 | 1014.7 |
| 20260906003047 | 22 | 345 | 0.0 | 0.0 | 0.00 | 0.00 | 0.00 | 52 | 1014.7 |
| 20260906001545 | 22 | 345 | 0.0 | 1.6 | 0.00 | 0.00 | 0.00 | 51 | 1014.8 |
| 20260906000054 | 22 | 345 | 0.0 | 1.6 | 0.00 | 0.00 | 0.00 | 50 | 1014.8 |
| 20260905234549 | 22 | 345 | 0.0 | 0.0 | 0.00 | 0.00 | 0.00 | 50 | 1014.9 |
| 20260905233038 | 23 | 345 | 0.0 | 1.6 | 0.00 | 0.00 | 0.00 | 49 | 1015.1 |
| 20260905231538 | 23 | 345 | 0.0 | 1.6 | 0.00 | 0.00 | 0.00 | 48 | 1015.1 |
| 20260905230036 | 23 | 345 | 0.0 | 0.0 | 0.00 | 0.00 | 0.00 | 48 | 1015.2 |
| 20260905224534 | 23 | 345 | 0.0 | 0.0 | 0.00 | 0.00 | 0.00 | 46 | 1015.4 |
| 20260905223033 | 23 | 345 | 0.0 | 0.0 | 0.00 | 0.00 | 0.00 | 47 | 1015.4 |
| 20260905221532 | 23 | 345 | 0.0 | 0.0 | 0.00 | 0.00 | 0.00 | 46 | 1015.4 |
| 20260905220033 | 23 | 345 | 0.0 | 0.0 | 0.00 | 0.00 | 0.00 | 46 | 1015.4 |
| 20260905214529 | 23 | 345 | 0.0 | 0.0 | 0.00 | 0.00 | 0.00 | 46 | 1015.4 |
| 20260905213027 | 24 | 345 | 0.0 | 0.0 | 0.00 | 0.00 | 0.00 | 46 | 1015.5 |
| 20260905211551 | 24 | 345 | 0.0 | 3.2 | 0.00 | 0.00 | 0.00 | 45 | 1015.4 |
| 20260905210022 | 25 | 345 | 0.0 | 3.2 | 0.00 | 0.00 | 0.00 | 45 | 1015.6 |
| 20260905204521 | 25 | 345 | 0.0 | 1.6 | 0.00 | 0.00 | 0.00 | 44 | 1015.5 |
| 20260905203021 | 26 | 345 | 0.0 | 1.6 | 0.00 | 0.00 | 0.00 | 42 | 1015.4 |
| 20260905201530 | 26 | 345 | 0.0 | 1.6 | 0.00 | 0.00 | 0.00 | 41 | 1015.4 |
| 20260905200021 | 26 | 345 | 0.0 | 1.6 | 0.00 | 0.00 | 0.00 | 39 | 1015.4 |
| 20260905194520 | 27 | 345 | 0.0 | 4.8 | 0.00 | 0.00 | 0.00 | 38 | 1015.5 |
| 20260905193019 | 27 | 350 | 0.0 | 3.2 | 0.00 | 0.00 | 0.00 | 37 | 1015.4 |
| 20260905191519 | 27 | 350 | 0.0 | 4.8 | 0.00 | 0.00 | 0.00 | 36 | 1015.4 |
| 20260905190018 | 27 | 54 | 0.0 | 4.8 | 0.00 | 0.00 | 0.00 | 37 | 1015.5 |
| 20260905184518 | 27 | 54 | 0.0 | 1.6 | 0.00 | 0.00 | 0.00 | 37 | 1015.6 |
| 20260905183028 | 27 | 54 | 0.0 | 4.8 | 0.00 | 0.00 | 0.00 | 37 | 1015.4 |
| 20260905181517 | 27 | 54 | 0.0 | 3.2 | 0.00 | 0.00 | 0.00 | 37 | 1015.3 |
| 20260905180017 | 28 | 54 | 0.0 | 3.2 | 0.00 | 0.00 | 0.00 | 36 | 1015.1 |
| 20260905174517 | 28 | 54 | 0.0 | 6.4 | 0.00 | 0.00 | 0.00 | 36 | 1015.1 |
| 20260905173032 | 28 | 355 | 1.6 | 6.4 | 0.00 | 0.00 | 0.00 | 35 | 1014.9 |
| 20260905171514 | 28 | 15 | 1.6 | 6.4 | 0.00 | 0.00 | 0.00 | 35 | 1014.7 |
| 20260905170014 | 29 | 355 | 1.6 | 12.9 | 0.00 | 0.00 | 0.00 | 35 | 1014.7 |
| 20260905164513 | 29 | 9 | 1.6 | 8.0 | 0.00 | 0.00 | 0.00 | 35 | 1014.7 |
| 20260905163015 | 30 | 272 | 1.6 | 6.4 | 0.00 | 0.00 | 0.00 | 35 | 1014.8 |
| 20260905161512 | 30 | 324 | 3.2 | 12.9 | 0.00 | 0.00 | 0.00 | 33 | 1014.8 |
| 20260905160011 | 31 | 36 | 1.6 | 9.7 | 0.00 | 0.00 | 0.00 | 31 | 1014.7 |
| 20260905154511 | 31 | 335 | 4.8 | 22.5 | 0.00 | 0.00 | 0.00 | 30 | 1014.8 |
| 20260905153010 | 31 | 345 | 4.8 | 12.9 | 0.00 | 0.00 | 0.00 | 29 | 1014.8 |
| 20260905151509 | 31 | 292 | 4.8 | 17.7 | 0.00 | 0.00 | 0.00 | 30 | 1014.8 |
| 20260905150009 | 31 | 311 | 12.9 | 29.0 | 0.00 | 0.00 | 0.00 | 30 | 1014.9 |
| 20260905144508 | 32 | 355 | 6.4 | 17.7 | 0.00 | 0.00 | 0.00 | 30 | 1014.7 |
| 20260905143006 | 32 | 321 | 8.0 | 19.3 | 0.00 | 0.00 | 0.00 | 30 | 1014.7 |
| 20260905141520 | 32 | 333 | 6.4 | 20.9 | 0.00 | 0.00 | 0.00 | 32 | 1014.8 |
| 20260905140006 | 32 | 328 | 4.8 | 16.1 | 0.00 | 0.00 | 0.00 | 32 | 1014.7 |
| 20260905134508 | 32 | 62 | 4.8 | 19.3 | 0.00 | 0.00 | 0.00 | 32 | 1014.8 |
| 20260905133005 | 32 | 350 | 4.8 | 16.1 | 0.00 | 0.00 | 0.00 | 32 | 1014.9 |
| 20260905131505 | 32 | 118 | 3.2 | 14.5 | 0.00 | 0.00 | 0.00 | 31 | 1014.9 |
| 20260905130002 | 32 | 50 | 4.8 | 19.3 | 0.00 | 0.00 | 0.00 | 31 | 1015.0 |
| 20260905124558 | 32 | 317 | 6.4 | 16.1 | 0.00 | 0.00 | 0.00 | 31 | 1015.0 |
| 20260905123053 | 32 | 78 | 4.8 | 19.3 | 0.00 | 0.00 | 0.00 | 32 | 1015.1 |
| 20260905121550 | 32 | 50 | 4.8 | 19.3 | 0.00 | 0.00 | 0.00 | 32 | 1015.2 |
| 20260905120051 | 32 | 350 | 3.2 | 20.9 | 0.00 | 0.00 | 0.00 | 33 | 1015.3 |
| 20260905114550 | 32 | 53 | 4.8 | 17.7 | 0.00 | 0.00 | 0.00 | 33 | 1015.5 |
| 20260905113048 | 32 | 14 | 4.8 | 19.3 | 0.00 | 0.00 | 0.00 | 34 | 1015.5 |
| 20260905111547 | 31 | 4 | 6.4 | 20.9 | 0.00 | 0.00 | 0.00 | 34 | 1015.5 |
| 20260905110104 | 31 | 6 | 6.4 | 24.1 | 0.00 | 0.00 | 0.00 | 34 | 1015.5 |
| 20260905104545 | 31 | 14 | 3.2 | 20.9 | 0.00 | 0.00 | 0.00 | 34 | 1015.6 |
| 20260905103048 | 31 | 355 | 6.4 | 22.5 | 0.00 | 0.00 | 0.00 | 33 | 1015.6 |
| 20260905101549 | 31 | 324 | 8.0 | 22.5 | 0.00 | 0.00 | 0.00 | 32 | 1015.6 |
| 20260905100035 | 31 | 322 | 6.4 | 25.7 | 0.00 | 0.00 | 0.00 | 33 | 1015.7 |